Time;durP1;ratioP1;P1;durP2;ratioP2;P2;SDS_P1;SDS_P2;PMS_P1;PMS_P2;Temp;Humidity;BMP_temperature;BMP_pressure;BME280_temperature;BME280_humidity;BME280_pressure;Samples;Min_cycle;Max_cycle;Signal;HPM_P1;HPM_P2
2021/08/02 00:01:31;;;;;;;2.70;2.50;;;;;;;13.90;100.00;97636.47;5092515;27;20220;-68
2021/08/02 00:04:03;;;;;;;3.93;2.80;;;;;;;13.88;100.00;97639.34;5087735;28;20201;-66
2021/08/02 00:06:39;;;;;;;3.00;2.90;;;;;;;13.98;100.00;97640.84;5086440;28;20253;-67
2021/08/02 00:09:08;;;;;;;3.67;2.80;;;;;;;13.94;100.00;97636.94;5100498;28;20232;-68
2021/08/02 00:11:39;;;;;;;3.50;3.20;;;;;;;13.96;100.00;97641.03;5098613;28;20225;-65
2021/08/02 00:14:09;;;;;;;3.03;2.83;;;;;;;13.93;100.00;97648.59;5098660;28;20197;-67
2021/08/02 00:16:39;;;;;;;3.37;3.07;;;;;;;13.97;100.00;97645.34;5094841;28;20212;-67
2021/08/02 00:19:08;;;;;;;3.00;2.77;;;;;;;13.99;100.00;97650.47;5103081;28;20474;-67
2021/08/02 00:21:37;;;;;;;2.73;2.63;;;;;;;13.95;100.00;97650.03;5098947;28;20197;-66
2021/08/02 00:24:05;;;;;;;3.77;2.60;;;;;;;13.94;100.00;97650.25;5102012;28;20648;-67
2021/08/02 00:26:33;;;;;;;4.37;3.20;;;;;;;13.91;100.00;97646.13;5099241;27;20241;-67
2021/08/02 00:29:02;;;;;;;3.73;3.43;;;;;;;13.95;100.00;97642.03;5097095;28;20260;-68
2021/08/02 00:31:31;;;;;;;3.10;2.80;;;;;;;13.96;100.00;97648.22;5102420;27;20221;-67
2021/08/02 00:33:59;;;;;;;4.17;3.13;;;;;;;13.93;100.00;97652.06;5102140;28;20870;-66
2021/08/02 00:36:33;;;;;;;3.00;2.77;;;;;;;13.95;100.00;97647.38;5102326;28;20594;-66
2021/08/02 00:39:06;;;;;;;3.60;3.40;;;;;;;14.00;100.00;97652.13;5098169;28;20201;-67
2021/08/02 00:42:11;;;;;;;2.90;2.70;;;;;;;13.99;100.00;97651.28;5100742;28;20259;-68
2021/08/02 00:45:03;;;;;;;2.83;2.60;;;;;;;13.96;100.00;97646.34;5101931;28;20649;-66
2021/08/02 00:47:36;;;;;;;3.60;2.73;;;;;;;13.95;100.00;97650.03;5093499;28;20563;-68
2021/08/02 00:50:06;;;;;;;5.53;3.23;;;;;;;13.86;100.00;97659.19;5101479;28;20205;-67
2021/08/02 00:52:34;;;;;;;3.17;2.97;;;;;;;13.91;100.00;97647.97;5100878;28;20225;-68
2021/08/02 00:55:05;;;;;;;2.90;2.80;;;;;;;13.87;100.00;97647.53;5103408;27;20235;-66
2021/08/02 00:57:37;;;;;;;3.03;2.83;;;;;;;13.84;100.00;97646.09;5102384;28;20225;-67
2021/08/02 01:00:07;;;;;;;3.23;2.27;;;;;;;13.87;100.00;97648.38;5103012;28;20209;-67
2021/08/02 01:02:39;;;;;;;3.83;2.57;;;;;;;13.82;100.00;97648.09;5100504;28;20541;-67
2021/08/02 01:05:10;;;;;;;3.00;2.70;;;;;;;13.81;100.00;97648.31;5103034;27;20874;-67
2021/08/02 01:07:42;;;;;;;2.80;2.60;;;;;;;13.83;100.00;97648.94;5100896;28;20628;-67
2021/08/02 01:10:12;;;;;;;4.40;3.07;;;;;;;13.88;100.00;97665.16;5102325;28;20561;-68
2021/08/02 01:12:43;;;;;;;2.67;2.37;;;;;;;13.83;100.00;97654.25;5102662;28;20226;-67
2021/08/02 01:15:11;;;;;;;2.90;2.67;;;;;;;13.82;100.00;97664.06;5103644;27;20825;-66
2021/08/02 01:17:40;;;;;;;3.47;2.70;;;;;;;13.83;100.00;97667.56;5101424;27;21192;-67
2021/08/02 01:20:10;;;;;;;3.07;2.67;;;;;;;13.82;100.00;97666.75;5101639;28;20202;-66
2021/08/02 01:22:41;;;;;;;3.07;2.87;;;;;;;13.81;100.00;97670.41;5090949;28;20665;-67
2021/08/02 01:25:56;;;;;;;2.50;2.40;;;;;;;13.80;100.00;97673.28;5097504;28;20586;-67
2021/08/02 01:29:01;;;;;;;5.00;2.77;;;;;;;13.81;100.00;97675.75;5099922;28;20605;-66
2021/08/02 01:31:29;;;;;;;3.17;2.63;;;;;;;13.79;100.00;97671.66;5100303;28;20611;-68
2021/08/02 01:33:57;;;;;;;3.27;3.07;;;;;;;13.77;100.00;97677.16;5086471;28;20209;-69
2021/08/02 01:36:26;;;;;;;4.57;2.70;;;;;;;13.74;100.00;97673.03;5101408;28;20205;-67
2021/08/02 01:38:56;;;;;;;4.27;2.80;;;;;;;13.76;100.00;97680.81;5101008;28;20206;-66
2021/08/02 01:41:24;;;;;;;2.80;2.60;;;;;;;13.75;100.00;97679.19;5097748;28;20201;-65
2021/08/02 01:43:52;;;;;;;3.47;3.07;;;;;;;13.69;100.00;97683.47;5100610;28;20197;-67
2021/08/02 01:46:29;;;;;;;3.37;3.07;;;;;;;13.66;100.00;97685.66;5099701;28;20674;-67
2021/08/02 01:49:01;;;;;;;3.87;2.80;;;;;;;13.67;100.00;97685.50;5100839;28;20434;-67
2021/08/02 01:51:36;;;;;;;4.43;3.67;;;;;;;13.64;100.00;97693.03;5099225;28;20190;-68
2021/08/02 01:54:10;;;;;;;2.63;2.43;;;;;;;13.60;100.00;97687.25;5100094;28;20205;-66
2021/08/02 01:56:42;;;;;;;3.57;3.23;;;;;;;13.55;100.00;97693.16;5100919;27;20224;-66
2021/08/02 01:59:15;;;;;;;3.53;3.23;;;;;;;13.52;100.00;97688.22;5099533;28;20198;-68
2021/08/02 02:01:47;;;;;;;4.47;3.10;;;;;;;13.50;100.00;97697.41;5100708;28;20222;-67
2021/08/02 02:04:17;;;;;;;3.53;3.23;;;;;;;13.48;100.00;97694.09;5102412;28;20202;-67
2021/08/02 02:06:47;;;;;;;4.07;2.97;;;;;;;13.48;100.00;97697.59;5101697;28;20218;-66
2021/08/02 02:09:17;;;;;;;3.43;3.13;;;;;;;13.47;100.00;97695.94;5100446;28;20206;-66
2021/08/02 02:11:47;;;;;;;3.57;3.37;;;;;;;13.49;100.00;97696.59;5101168;28;20205;-66
2021/08/02 02:14:15;;;;;;;4.30;3.83;;;;;;;13.43;100.00;97697.31;5101098;27;20649;-66
2021/08/02 02:16:46;;;;;;;4.33;3.93;;;;;;;13.41;100.00;97705.47;5101141;27;20722;-67
2021/08/02 02:19:15;;;;;;;3.93;3.73;;;;;;;13.35;100.00;97714.22;5101947;27;20236;-67
2021/08/02 02:21:44;;;;;;;4.70;4.30;;;;;;;13.39;100.00;97725.28;5103366;27;20296;-67
2021/08/02 02:24:12;;;;;;;5.17;3.90;;;;;;;13.34;100.00;97720.56;5099803;28;20205;-67
2021/08/02 02:26:42;;;;;;;4.37;4.07;;;;;;;13.37;100.00;97716.69;5101023;27;20609;-69
2021/08/02 02:29:11;;;;;;;4.63;4.33;;;;;;;13.40;100.00;97719.81;5100156;28;20205;-68
2021/08/02 02:31:41;;;;;;;4.63;4.33;;;;;;;13.40;100.00;97719.81;5100086;27;20209;-67
2021/08/02 02:34:10;;;;;;;6.13;4.40;;;;;;;13.36;100.00;97726.53;5101703;27;20220;-69
2021/08/02 02:36:40;;;;;;;4.87;4.47;;;;;;;13.31;100.00;97721.75;5102568;27;20301;-67
2021/08/02 02:39:08;;;;;;;6.27;4.37;;;;;;;13.40;100.00;97729.59;5100750;27;20205;-67
2021/08/02 02:41:36;;;;;;;9.10;5.10;;;;;;;13.33;100.00;97732.22;5100878;27;20673;-68
2021/08/02 02:44:06;;;;;;;5.30;4.90;;;;;;;13.27;100.00;97733.78;5100511;28;20243;-69
2021/08/02 02:46:35;;;;;;;4.93;4.53;;;;;;;13.20;100.00;97735.56;5099403;28;20233;-68
2021/08/02 02:49:03;;;;;;;5.50;5.10;;;;;;;13.20;100.00;97737.38;5099348;28;20550;-67
2021/08/02 02:51:31;;;;;;;6.27;4.90;;;;;;;13.18;100.00;97733.06;5098903;28;20485;-68
2021/08/02 02:54:00;;;;;;;5.13;4.63;;;;;;;13.17;100.00;97736.72;5099974;28;20229;-68
2021/08/02 02:56:31;;;;;;;5.77;5.20;;;;;;;13.19;100.00;97747.22;5098283;28;20198;-69
2021/08/02 02:58:59;;;;;;;5.20;4.90;;;;;;;13.24;100.00;97746.63;5098181;27;20209;-69
2021/08/02 03:01:31;;;;;;;6.70;5.03;;;;;;;13.25;100.00;97746.44;5101355;28;20209;-68
2021/08/02 03:04:00;;;;;;;5.63;5.30;;;;;;;13.13;100.00;97748.75;5098328;28;20689;-69
2021/08/02 03:06:29;;;;;;;5.23;4.90;;;;;;;13.08;100.00;97753.81;5099797;28;20233;-69
2021/08/02 03:08:58;;;;;;;4.63;4.33;;;;;;;13.05;100.00;97750.69;5098504;28;20213;-68
2021/08/02 03:11:26;;;;;;;5.03;4.63;;;;;;;13.03;100.00;97757.03;5100972;28;20201;-69
2021/08/02 03:13:54;;;;;;;5.73;4.93;;;;;;;13.00;100.00;97749.44;5100968;28;20228;-69
2021/08/02 03:16:23;;;;;;;5.77;5.30;;;;;;;12.94;100.00;97762.66;5097788;28;20293;-68
2021/08/02 03:18:52;;;;;;;5.53;5.13;;;;;;;12.95;100.00;97764.31;5098163;28;20208;-68
2021/08/02 03:21:21;;;;;;;5.37;4.97;;;;;;;12.96;100.00;97763.28;5098072;28;20205;-69
2021/08/02 03:24:03;;;;;;;5.70;5.20;;;;;;;12.88;100.00;97772.19;5099210;28;20543;-68
2021/08/02 03:26:35;;;;;;;5.73;4.73;;;;;;;12.81;100.00;97772.09;5096127;28;20455;-67
2021/08/02 03:29:08;;;;;;;5.60;5.20;;;;;;;12.79;100.00;97768.78;5101089;28;20224;-69
2021/08/02 03:31:42;;;;;;;5.30;4.90;;;;;;;12.73;100.00;97775.69;5099789;28;20335;-66
2021/08/02 03:34:16;;;;;;;5.60;5.13;;;;;;;12.68;100.00;97779.88;5100171;28;20226;-68
2021/08/02 03:36:45;;;;;;;6.47;5.00;;;;;;;12.68;100.00;97769.25;5098349;28;20905;-69
2021/08/02 03:39:14;;;;;;;8.20;5.00;;;;;;;12.67;100.00;97775.59;5098759;28;20487;-67
2021/08/02 03:41:42;;;;;;;4.77;4.40;;;;;;;12.66;100.00;97782.72;5100999;28;20236;-69
2021/08/02 03:44:11;;;;;;;6.10;5.07;;;;;;;12.58;100.00;97777.50;5099485;28;20198;-68
2021/08/02 03:46:40;;;;;;;6.63;4.87;;;;;;;12.59;100.00;97773.81;5098590;28;20226;-66
2021/08/02 03:49:08;;;;;;;4.87;4.47;;;;;;;12.54;100.00;97777.06;5099779;28;20239;-67
2021/08/02 03:51:43;;;;;;;5.83;5.23;;;;;;;12.53;100.00;97777.22;5097071;27;20232;-69
2021/08/02 03:54:11;;;;;;;5.00;4.70;;;;;;;12.49;100.00;97784.72;5099632;28;20221;-68
2021/08/02 03:56:39;;;;;;;6.00;5.37;;;;;;;12.60;100.00;97786.13;5095235;28;20634;-69
2021/08/02 03:59:07;;;;;;;5.80;5.43;;;;;;;12.53;100.00;97787.84;5091647;28;20229;-68
2021/08/02 04:01:38;;;;;;;6.47;5.83;;;;;;;12.53;100.00;97790.50;5098913;28;20228;-70
2021/08/02 04:04:08;;;;;;;6.03;5.53;;;;;;;12.48;100.00;97795.53;5100359;28;20202;-68
2021/08/02 04:06:38;;;;;;;7.17;5.90;;;;;;;12.62;100.00;97792.06;5099299;28;20230;-67
2021/08/02 04:09:08;;;;;;;5.50;5.13;;;;;;;12.55;100.00;97791.16;5100401;28;20212;-68
2021/08/02 04:11:36;;;;;;;6.57;6.17;;;;;;;12.48;100.00;97795.53;5099231;28;20205;-69
2021/08/02 04:14:04;;;;;;;6.40;5.87;;;;;;;12.43;100.00;97786.28;5101765;28;20221;-71
2021/08/02 04:16:32;;;;;;;7.37;5.67;;;;;;;12.41;100.00;97792.78;5097879;28;20347;-69
2021/08/02 04:19:00;;;;;;;6.70;5.90;;;;;;;12.40;100.00;97793.78;5102240;28;20520;-67
2021/08/02 04:21:29;;;;;;;6.73;5.40;;;;;;;12.43;100.00;97794.25;5099660;28;20225;-68
2021/08/02 04:23:58;;;;;;;5.80;5.37;;;;;;;12.48;100.00;97793.69;5099358;28;20350;-69
2021/08/02 04:26:26;;;;;;;5.83;5.33;;;;;;;12.48;100.00;97788.38;5099394;28;20212;-68
2021/08/02 04:28:56;;;;;;;5.17;4.87;;;;;;;12.55;100.00;97789.34;5099584;28;20205;-67
2021/08/02 04:31:25;;;;;;;5.60;5.10;;;;;;;12.66;100.00;97800.53;5097579;28;20205;-68
2021/08/02 04:33:54;;;;;;;6.07;5.73;;;;;;;12.69;100.00;97793.03;5100817;28;20253;-70
2021/08/02 04:36:22;;;;;;;6.23;5.73;;;;;;;12.77;100.00;97799.25;5098916;28;20273;-69
2021/08/02 04:38:49;;;;;;;6.30;5.90;;;;;;;12.81;100.00;97806.66;5095255;28;20461;-69
2021/08/02 04:41:19;;;;;;;7.40;5.70;;;;;;;12.97;100.00;97799.53;5099598;28;20206;-69
2021/08/02 04:43:47;;;;;;;6.37;5.77;;;;;;;13.03;100.00;97802.25;5099871;28;20197;-68
2021/08/02 04:46:15;;;;;;;7.53;6.93;;;;;;;13.04;100.00;97797.78;5099770;28;20381;-68
2021/08/02 04:48:43;;;;;;;6.07;5.57;;;;;;;13.12;100.00;97802.97;5097772;28;20508;-68
2021/08/02 04:51:11;;;;;;;6.37;5.93;;;;;;;13.17;100.00;97802.44;5099205;28;20522;-67
2021/08/02 04:53:39;;;;;;;5.90;5.33;;;;;;;13.25;100.00;97799.66;5094340;28;20729;-67
2021/08/02 04:56:07;;;;;;;7.30;6.60;;;;;;;13.24;100.00;97805.16;5098645;28;20208;-67
2021/08/02 04:58:36;;;;;;;6.50;6.00;;;;;;;13.24;100.00;97811.31;5098626;28;20406;-68
2021/08/02 05:01:04;;;;;;;6.70;6.10;;;;;;;13.26;100.00;97811.97;5097158;28;20589;-68
2021/08/02 05:03:33;;;;;;;6.47;6.07;;;;;;;13.25;100.00;97814.78;5098967;28;20232;-68
2021/08/02 05:06:01;;;;;;;6.03;5.63;;;;;;;13.26;100.00;97827.13;5101367;28;20283;-69
2021/08/02 05:08:29;;;;;;;6.50;6.00;;;;;;;13.26;100.00;97827.94;5104146;28;20220;-68
2021/08/02 05:10:57;;;;;;;6.33;5.93;;;;;;;13.37;100.00;97823.97;5103859;27;20205;-69
2021/08/02 05:13:25;;;;;;;6.23;5.73;;;;;;;13.36;100.00;97824.16;5093785;28;20209;-69
2021/08/02 05:15:54;;;;;;;6.40;5.80;;;;;;;13.56;100.00;97833.25;5098774;28;20393;-68
2021/08/02 05:18:22;;;;;;;5.93;5.50;;;;;;;13.59;100.00;97832.03;5099058;28;20229;-70
2021/08/02 05:20:50;;;;;;;6.03;5.50;;;;;;;13.64;100.00;97831.47;5088363;28;20820;-69
2021/08/02 05:23:18;;;;;;;6.67;5.37;;;;;;;13.67;100.00;97836.41;5095501;28;20210;-68
2021/08/02 05:25:46;;;;;;;7.43;5.30;;;;;;;13.77;100.00;97836.13;5101311;28;20210;-67
2021/08/02 05:28:14;;;;;;;6.03;5.53;;;;;;;13.87;100.00;97836.63;5096181;28;20218;-68
2021/08/02 05:30:42;;;;;;;6.00;5.50;;;;;;;13.98;100.00;97844.13;5102266;27;20205;-68
2021/08/02 05:33:11;;;;;;;6.43;5.30;;;;;;;14.07;100.00;97842.16;5101018;27;20217;-68
2021/08/02 05:35:39;;;;;;;5.70;5.00;;;;;;;14.12;100.00;97842.41;5102974;28;20225;-69
2021/08/02 05:38:07;;;;;;;10.83;5.00;;;;;;;14.37;100.00;97841.19;5095422;28;20407;-68
2021/08/02 05:40:35;;;;;;;6.30;4.97;;;;;;;14.60;100.00;97833.00;5101486;28;20201;-70
2021/08/02 05:43:03;;;;;;;4.50;4.17;;;;;;;14.64;100.00;97833.41;5102323;28;20308;-71
2021/08/02 05:45:31;;;;;;;5.67;4.60;;;;;;;14.72;100.00;97833.28;5101036;28;20201;-67
2021/08/02 05:47:59;;;;;;;4.83;4.43;;;;;;;14.88;100.00;97834.84;5102764;28;20309;-68
2021/08/02 05:50:28;;;;;;;4.63;4.20;;;;;;;14.79;100.00;97830.69;5100979;28;20247;-67
2021/08/02 05:52:56;;;;;;;4.20;4.00;;;;;;;14.94;100.00;97831.38;5101300;28;20201;-71
2021/08/02 05:55:24;;;;;;;4.60;4.03;;;;;;;14.95;100.00;97833.03;5100867;28;20440;-67
2021/08/02 05:57:52;;;;;;;5.10;4.70;;;;;;;15.01;100.00;97829.59;5101423;28;20225;-67
2021/08/02 06:00:20;;;;;;;6.47;4.50;;;;;;;15.03;100.00;97843.56;5099410;28;20470;-68
2021/08/02 06:02:49;;;;;;;4.30;4.00;;;;;;;15.03;100.00;97840.91;5098777;28;20538;-68
2021/08/02 06:05:17;;;;;;;6.30;4.60;;;;;;;14.97;100.00;97844.34;5100373;28;20288;-66
2021/08/02 06:07:46;;;;;;;4.13;3.90;;;;;;;15.04;100.00;97850.53;5102917;28;20614;-67
2021/08/02 06:10:14;;;;;;;4.27;3.93;;;;;;;15.12;100.00;97848.72;5101566;28;20209;-67
2021/08/02 06:12:42;;;;;;;4.00;3.57;;;;;;;15.09;100.00;97849.13;5101419;28;20213;-66
2021/08/02 06:15:11;;;;;;;4.27;3.97;;;;;;;15.05;100.00;97849.53;5100277;28;20282;-67
2021/08/02 06:17:39;;;;;;;3.43;3.23;;;;;;;15.05;100.00;97848.69;5101156;28;20232;-67
2021/08/02 06:20:08;;;;;;;4.23;3.90;;;;;;;15.05;100.00;97857.53;5101033;28;20206;-68
2021/08/02 06:22:36;;;;;;;4.17;3.93;;;;;;;15.32;100.00;97863.00;5100521;28;20202;-68
2021/08/02 06:25:08;;;;;;;4.67;4.30;;;;;;;15.30;100.00;97862.38;5096110;28;20213;-67
2021/08/02 06:27:36;;;;;;;5.30;4.80;;;;;;;15.37;100.00;97864.28;5098826;28;20228;-70
2021/08/02 06:30:05;;;;;;;4.77;4.40;;;;;;;15.19;100.00;97863.78;5099404;27;20456;-68
2021/08/02 06:32:33;;;;;;;4.40;4.10;;;;;;;15.15;100.00;97875.88;5100159;28;20209;-68
2021/08/02 06:35:01;;;;;;;5.10;4.60;;;;;;;15.17;100.00;97875.66;5099655;28;20294;-69
2021/08/02 06:37:29;;;;;;;4.50;4.20;;;;;;;14.96;100.00;97872.03;5100129;28;20578;-70
2021/08/02 06:39:57;;;;;;;4.77;4.37;;;;;;;14.66;100.00;97872.22;5099550;28;20209;-69
2021/08/02 06:42:27;;;;;;;4.50;4.17;;;;;;;14.65;100.00;97883.91;5100862;28;20209;-67
2021/08/02 06:44:54;;;;;;;4.60;4.20;;;;;;;14.81;100.00;97872.16;5101772;27;20198;-66
2021/08/02 06:47:22;;;;;;;4.40;4.10;;;;;;;14.84;100.00;97877.09;5098378;27;20229;-68
2021/08/02 06:49:50;;;;;;;4.57;4.27;;;;;;;14.85;100.00;97880.56;5099854;28;20209;-70
2021/08/02 06:52:18;;;;;;;4.90;4.43;;;;;;;14.88;100.00;97883.69;5098315;27;20202;-69
2021/08/02 06:54:46;;;;;;;4.50;4.10;;;;;;;14.88;100.00;97883.69;5100872;28;20855;-66
2021/08/02 06:57:14;;;;;;;4.90;4.27;;;;;;;14.80;100.00;97883.00;5101409;27;20230;-68
2021/08/02 06:59:44;;;;;;;4.77;4.20;;;;;;;14.96;100.00;97879.22;5096495;27;20339;-69
2021/08/02 07:02:12;;;;;;;4.10;3.80;;;;;;;15.09;100.00;97886.50;5098429;27;20210;-69
2021/08/02 07:04:40;;;;;;;4.93;4.00;;;;;;;14.95;100.00;97883.72;5097150;28;20229;-70
2021/08/02 07:07:08;;;;;;;3.77;3.57;;;;;;;15.01;100.00;97888.28;5100122;28;20225;-68
2021/08/02 07:09:37;;;;;;;3.77;3.57;;;;;;;14.94;100.00;97892.75;5099074;28;20248;-66
2021/08/02 07:12:06;;;;;;;4.30;4.00;;;;;;;14.96;100.00;97889.88;5096373;28;20202;-68
2021/08/02 07:14:34;;;;;;;4.70;4.40;;;;;;;15.04;100.00;97881.72;5097304;27;20217;-71
2021/08/02 07:17:04;;;;;;;4.13;3.80;;;;;;;15.17;100.00;97884.50;5091687;27;20680;-69
2021/08/02 07:19:32;;;;;;;4.30;3.90;;;;;;;15.39;100.00;97883.59;5095258;27;20208;-68
2021/08/02 07:22:00;;;;;;;6.00;4.00;;;;;;;15.27;100.00;97878.78;5103422;27;20201;-68
2021/08/02 07:24:28;;;;;;;4.20;4.00;;;;;;;15.18;100.00;97890.66;5099591;27;20202;-67
2021/08/02 07:26:55;;;;;;;5.07;4.30;;;;;;;15.29;100.00;97886.59;5098469;28;20312;-68
2021/08/02 07:29:23;;;;;;;4.33;4.10;;;;;;;15.27;100.00;97894.81;5098159;28;21072;-69
2021/08/02 07:31:51;;;;;;;4.37;4.07;;;;;;;15.39;99.05;97896.94;5098556;28;20202;-68
2021/08/02 07:34:21;;;;;;;3.50;3.30;;;;;;;15.54;96.81;97900.28;5095475;27;20212;-67
2021/08/02 07:36:48;;;;;;;4.13;3.90;;;;;;;15.71;96.85;97902.59;5103221;27;20302;-67
2021/08/02 07:39:16;;;;;;;4.23;3.93;;;;;;;15.68;98.16;97908.34;5101625;27;20206;-71
2021/08/02 07:41:47;;;;;;;4.10;3.80;;;;;;;15.67;96.66;97904.88;5101894;27;20249;-66
2021/08/02 07:44:15;;;;;;;4.43;4.13;;;;;;;15.70;93.97;97904.47;5098013;27;20256;-66
2021/08/02 07:46:43;;;;;;;4.10;3.80;;;;;;;15.91;93.96;97902.75;5097314;28;20225;-68
2021/08/02 07:49:11;;;;;;;3.53;3.23;;;;;;;15.97;94.12;97901.09;5098110;28;20202;-65
2021/08/02 07:51:40;;;;;;;3.80;3.50;;;;;;;15.95;96.44;97903.97;5099491;28;20206;-69
2021/08/02 07:54:10;;;;;;;3.67;3.47;;;;;;;16.02;93.67;97906.66;5099335;28;20720;-66
2021/08/02 07:56:39;;;;;;;4.30;3.30;;;;;;;15.77;95.21;97913.31;5097951;28;20351;-67
2021/08/02 07:59:07;;;;;;;3.60;3.40;;;;;;;15.74;94.58;97904.91;5102376;28;20204;-68
2021/08/02 08:01:34;;;;;;;3.87;3.67;;;;;;;15.77;96.46;97904.50;5095039;28;20795;-66
2021/08/02 08:04:03;;;;;;;4.73;3.67;;;;;;;15.81;95.03;97910.25;5104399;27;20200;-68
2021/08/02 08:06:31;;;;;;;3.50;3.30;;;;;;;15.80;96.09;97906.78;5096576;28;20205;-67
2021/08/02 08:09:00;;;;;;;3.67;3.37;;;;;;;15.80;95.67;97914.78;5099220;28;20201;-66
2021/08/02 08:11:28;;;;;;;7.50;4.07;;;;;;;15.82;95.57;97903.88;5097033;28;20201;-66
2021/08/02 08:13:56;;;;;;;3.90;3.60;;;;;;;15.97;94.84;97912.63;5098509;28;20202;-67
2021/08/02 08:16:24;;;;;;;3.30;3.10;;;;;;;16.19;94.15;97904.44;5099090;28;20665;-66
2021/08/02 08:18:52;;;;;;;4.00;3.60;;;;;;;16.11;94.62;97916.16;5099969;28;20613;-68
2021/08/02 08:21:20;;;;;;;3.40;3.20;;;;;;;16.17;94.35;97910.00;5098856;28;20198;-67
2021/08/02 08:23:48;;;;;;;3.13;3.03;;;;;;;16.35;94.40;97905.91;5097838;28;20198;-67
2021/08/02 08:26:20;;;;;;;3.80;3.50;;;;;;;16.31;93.41;97904.66;5100276;28;20197;-65
2021/08/02 08:28:48;;;;;;;3.90;3.60;;;;;;;16.32;92.89;97911.66;5097089;28;20201;-68
2021/08/02 08:31:17;;;;;;;3.90;3.63;;;;;;;16.05;95.20;97909.75;5099863;28;20221;-66
2021/08/02 08:33:46;;;;;;;3.43;3.23;;;;;;;16.22;95.67;97906.69;5099594;28;20267;-68
2021/08/02 08:36:15;;;;;;;4.13;3.73;;;;;;;16.44;93.11;97906.53;5099651;28;20346;-67
2021/08/02 08:38:43;;;;;;;3.30;3.20;;;;;;;16.42;91.54;97914.75;5099798;28;20205;-67
2021/08/02 08:41:13;;;;;;;3.93;3.53;;;;;;;16.56;92.84;97914.78;5104495;27;20293;-67
2021/08/02 08:43:42;;;;;;;4.93;3.17;;;;;;;16.59;92.69;97922.41;5102972;28;20274;-67
2021/08/02 08:46:10;;;;;;;3.90;3.37;;;;;;;16.36;92.93;97918.25;5102955;27;20744;-68
2021/08/02 08:48:38;;;;;;;3.63;3.30;;;;;;;16.25;91.45;97918.84;5103567;27;20321;-66
2021/08/02 08:51:06;;;;;;;4.90;4.07;;;;;;;16.49;90.37;97915.63;5103177;28;20201;-65
2021/08/02 08:53:34;;;;;;;3.60;3.23;;;;;;;16.47;90.95;97911.47;5102978;28;20239;-65
2021/08/02 08:56:02;;;;;;;3.33;3.23;;;;;;;16.53;91.33;97916.00;5102468;27;20228;-66
2021/08/02 08:58:30;;;;;;;3.73;3.33;;;;;;;16.58;90.93;97921.56;5102415;28;20274;-66
2021/08/02 09:01:05;;;;;;;3.60;3.40;;;;;;;16.86;89.16;97920.56;5100833;27;20210;-66
2021/08/02 09:03:33;;;;;;;3.50;3.30;;;;;;;16.97;89.29;97921.78;5102237;28;20371;-68
2021/08/02 09:06:03;;;;;;;6.13;3.73;;;;;;;17.02;87.51;97916.66;5099195;28;20201;-68
2021/08/02 09:08:31;;;;;;;3.20;3.00;;;;;;;17.10;87.83;97917.47;5102628;28;20232;-67
2021/08/02 09:11:00;;;;;;;4.37;3.20;;;;;;;17.39;85.81;97918.84;5103591;28;20562;-65
2021/08/02 09:13:32;;;;;;;3.67;3.40;;;;;;;17.14;85.79;97922.22;5102153;27;20217;-66
2021/08/02 09:16:12;;;;;;;3.27;3.07;;;;;;;17.33;85.36;97920.53;5102760;28;20221;-67
2021/08/02 09:18:40;;;;;;;4.43;4.13;;;;;;;17.53;83.88;97916.97;5103035;27;20257;-66
2021/08/02 09:21:08;;;;;;;3.27;3.07;;;;;;;17.44;81.98;97923.59;5102524;27;20225;-67
2021/08/02 09:23:47;;;;;;;4.03;3.40;;;;;;;17.59;82.21;97921.47;5101753;28;20259;-66
2021/08/02 09:26:15;;;;;;;3.93;3.63;;;;;;;17.63;79.38;97917.38;5102764;28;20388;-67
2021/08/02 09:28:52;;;;;;;4.33;2.87;;;;;;;17.65;80.36;97927.84;5103036;28;20204;-66
2021/08/02 09:31:31;;;;;;;2.67;2.57;;;;;;;17.75;80.12;97922.84;5104942;27;20190;-67
2021/08/02 09:34:02;;;;;;;3.90;3.40;;;;;;;18.11;75.99;97917.16;5100603;28;20213;-68
2021/08/02 09:36:41;;;;;;;2.93;2.73;;;;;;;17.93;75.29;97918.69;5101061;28;20353;-71
2021/08/02 09:39:10;;;;;;;3.03;2.83;;;;;;;18.53;74.53;97920.19;5101978;28;20488;-70
2021/08/02 09:41:38;;;;;;;2.83;2.63;;;;;;;18.71;70.81;97908.72;5102390;27;20215;-72
2021/08/02 09:44:08;;;;;;;2.63;2.37;;;;;;;18.09;72.65;97917.41;5100661;28;20692;-71
2021/08/02 09:46:38;;;;;;;2.80;2.60;;;;;;;17.97;73.72;97919.06;5101913;28;20218;-71
2021/08/02 09:49:06;;;;;;;2.90;2.70;;;;;;;17.82;76.97;97922.03;5099439;28;20216;-72
2021/08/02 09:51:43;;;;;;;2.50;2.40;;;;;;;18.15;76.20;97921.06;5102613;28;20245;-70
2021/08/02 09:54:11;;;;;;;2.40;2.30;;;;;;;18.20;75.85;97905.16;5103806;27;20221;-72
2021/08/02 09:56:39;;;;;;;2.87;2.57;;;;;;;18.37;75.09;97913.50;5099330;28;20232;-71
2021/08/02 09:59:08;;;;;;;2.97;2.77;;;;;;;18.65;72.45;97909.59;5102518;27;20209;-72
2021/08/02 10:01:37;;;;;;;3.13;2.83;;;;;;;18.73;73.56;97909.31;5100443;27;20320;-71
2021/08/02 10:04:27;;;;;;;3.40;3.20;;;;;;;18.99;72.40;97907.47;5100582;28;20207;-71
2021/08/02 10:06:55;;;;;;;3.93;3.53;;;;;;;19.20;68.68;97903.56;5103013;27;20222;-71
2021/08/02 10:09:23;;;;;;;2.83;2.73;;;;;;;19.33;67.82;97907.16;5100961;28;20213;-71
2021/08/02 10:11:52;;;;;;;2.87;2.60;;;;;;;18.92;69.52;97901.31;5102761;28;20206;-73
2021/08/02 10:14:28;;;;;;;3.10;2.70;;;;;;;18.85;70.93;97903.25;5099348;28;20204;-71
2021/08/02 10:17:00;;;;;;;2.60;2.50;;;;;;;19.23;71.34;97902.31;5100917;28;20229;-71
2021/08/02 10:19:36;;;;;;;2.60;2.40;;;;;;;19.50;70.27;97900.16;5101512;27;20239;-71
2021/08/02 10:22:05;;;;;;;3.03;2.60;;;;;;;19.68;67.18;97898.47;5103071;28;20315;-72
2021/08/02 10:24:33;;;;;;;2.87;2.53;;;;;;;19.34;65.67;97904.25;5102050;28;20304;-72
2021/08/02 10:27:02;;;;;;;2.63;2.53;;;;;;;19.53;66.85;97902.38;5101433;28;20218;-71
2021/08/02 10:29:39;;;;;;;2.70;2.40;;;;;;;19.46;66.44;97896.28;5101880;28;20197;-70
2021/08/02 10:32:21;;;;;;;2.53;2.33;;;;;;;19.71;64.22;97892.69;5099488;28;20201;-70
2021/08/02 10:34:53;;;;;;;5.53;2.13;;;;;;;19.40;64.43;97901.72;5100218;28;20729;-72
2021/08/02 10:37:31;;;;;;;2.67;2.50;;;;;;;19.94;64.91;97894.69;5096874;28;20225;-71
2021/08/02 10:40:13;;;;;;;3.40;2.37;;;;;;;19.95;62.42;97895.50;5100366;28;20585;-72
2021/08/02 10:42:48;;;;;;;4.43;2.10;;;;;;;20.28;61.97;97890.72;5101001;28;20667;-71
2021/08/02 10:45:16;;;;;;;2.30;2.20;;;;;;;20.36;61.28;97887.69;5101588;28;20320;-71
2021/08/02 10:47:45;;;;;;;3.87;2.27;;;;;;;21.06;59.21;97883.47;5100258;28;20611;-70
2021/08/02 10:50:24;;;;;;;2.07;1.97;;;;;;;20.91;60.46;97888.50;5100532;28;20206;-72
2021/08/02 10:52:54;;;;;;;2.63;2.43;;;;;;;21.45;55.99;97882.94;5106283;27;20201;-72
2021/08/02 10:55:22;;;;;;;2.37;2.13;;;;;;;21.83;54.59;97876.19;5100085;27;20202;-72
2021/08/02 10:57:59;;;;;;;4.03;2.20;;;;;;;22.52;52.33;97874.44;5100306;28;20225;-71
2021/08/02 11:00:28;;;;;;;2.57;2.30;;;;;;;22.27;53.07;97872.13;5097655;28;20208;-73
2021/08/02 11:02:58;;;;;;;2.20;2.00;;;;;;;22.65;52.65;97867.09;5096280;28;20217;-71
2021/08/02 11:05:33;;;;;;;1.80;1.70;;;;;;;23.01;50.77;97859.53;5100816;27;20286;-71
2021/08/02 11:08:05;;;;;;;2.47;2.27;;;;;;;22.47;52.17;97857.38;5102766;27;20593;-71
2021/08/02 11:10:34;;;;;;;1.73;1.63;;;;;;;22.93;51.18;97859.97;5094423;27;20236;-71
2021/08/02 11:13:24;;;;;;;2.30;2.10;;;;;;;22.77;50.73;97851.63;5103685;27;20199;-70
2021/08/02 11:15:52;;;;;;;2.77;1.93;;;;;;;23.56;49.17;97846.22;5098078;28;20197;-72
2021/08/02 11:18:25;;;;;;;2.20;1.73;;;;;;;23.16;50.42;97839.19;5097876;27;20617;-72
2021/08/02 11:20:54;;;;;;;2.33;2.13;;;;;;;23.67;49.47;97834.44;5099934;27;20325;-71
2021/08/02 11:23:32;;;;;;;3.73;2.00;;;;;;;23.81;48.60;97836.75;5106561;27;20232;-72
2021/08/02 11:26:07;;;;;;;1.73;1.63;;;;;;;23.55;48.63;97840.00;5100413;27;20201;-72
2021/08/02 11:28:42;;;;;;;1.80;1.70;;;;;;;23.34;48.67;97841.63;5103162;28;20670;-72
2021/08/02 11:31:11;;;;;;;2.33;2.13;;;;;;;22.62;48.38;97840.59;5101704;28;20198;-71
2021/08/02 11:33:42;;;;;;;2.07;1.97;;;;;;;22.19;51.24;97834.72;5091676;28;20214;-72
2021/08/02 11:36:16;;;;;;;2.50;2.30;;;;;;;22.18;51.94;97835.78;5093243;28;20203;-72
2021/08/02 11:38:45;;;;;;;1.80;1.70;;;;;;;22.71;51.25;97828.31;5098573;28;20739;-73
2021/08/02 11:41:24;;;;;;;1.60;1.60;;;;;;;23.32;51.29;97824.03;5097063;28;20210;-72
2021/08/02 11:43:52;;;;;;;2.20;1.87;;;;;;;23.71;48.50;97821.22;5088643;27;20212;-72